Here is the Quick Look data you requested

The Data originates at the National Weather Service, and is made available here by the UAlbany Department of Atmospheric and Environmental Sciences

Surface Observations

KACK 230153Z AUTO 31019G31KT 10SM CLR M04/M19 A3020 RMK AO2 PK WND 32036/0058
 SLP228 T10441194=
KAQW 230152Z AUTO 28011G18KT 10SM CLR M08/M22 A3034 RMK AO2 SLP286 T10831217=
KBAF 230153Z 33012G19KT 10SM CLR M07/M22 A3033 RMK AO2 SLP278 T10671217=
KBED 230156Z 33018G25KT 10SM CLR M07/M23 A3028 RMK AO2 PK WND 33032/0136 SLP269
 T10721228=
KBOS 230154Z 32020G30KT 10SM CLR M07/M22 A3027 RMK AO2 PK WND 29035/0130 SLP249
 T10671217=
KBVY 230153Z AUTO 32016G24KT 10SM CLR M08/M20 A3025 RMK AO2 PK WND 33034/0055
 SLP241 T10781200=
KCEF 230158Z AUTO 33006G17KT 10SM CLR M06/M23 A3032 RMK AO2 SLP277 T10641227=
KCQX 230152Z AUTO 32014G28KT 290V350 10SM CLR M05/M17 A3021 RMK AO2 PK WND
 32031/0056 SLP231 T10501172=
KEWB 230153Z 31013G21KT 270V350 10SM CLR M05/M23 A3024 RMK AO2 PK WND
 33026/0054 SLP242 T10501228=
KFIT 230152Z AUTO 31012G19KT 10SM CLR M07/M22 A3028 RMK AO2 SLP261 T10721217=
KHYA 230156Z 34020G31KT 10SM CLR M05/M19 A3018 RMK AO2 PK WND 33033/0137 SLP223
 T10501189=
KLWM 230154Z 31016G32KT 10SM CLR M09/M21 A3028 RMK AO2 PK WND 32032/0149 SLP256
 T10891206=
KMQE 230154Z AUTO 33018G33KT M08/M22 A3020 RMK AO1 PK WND 31037/0119 SLP246
 T10831222=
KMVY 230153Z AUTO 33021G32KT 10SM CLR M04/M22 A3023 RMK AO2 PK WND 33034/0105
 SLP237 T10441222 TSNO=
KORE 230152Z AUTO 35011KT 10SM CLR M08/M21 A3030 RMK AO2 SLP269 T10831206 $=
KORH 230154Z AUTO 31011G25KT 10SM CLR M09/M23 A3022 RMK AO2 PK WND 31033/0100
 SLP250 T10891228=
KOWD 230153Z AUTO 32009G22KT 10SM CLR M06/M22 A3027 RMK AO2 SLP252 T10611217=
KPSF 230154Z AUTO 30017G30KT 10SM CLR M09/M22 A3028 RMK AO2 PK WND 30030/0148
 SLP278 T10941217=
KPVC 230156Z AUTO 33024G40KT 10SM CLR M06/M14 A3023 RMK AO2 PK WND 35040/0153
 SLP235 T10561144 FZRANO=
KPYM 230152Z AUTO 32020G30KT 10SM CLR M06/M23 A3024 RMK AO2 PK WND 33032/0135
 SLP241 T10611228 TSNO=
KTAN 230152Z AUTO 32012G24KT 10SM CLR M06/M23 A3025 RMK AO2 PK WND 33027/0106
 SLP244 T10611228=